Hua-yang, China
Current Conditions -  °F | °C
As of 5:00 PM on Monday 24 Nov 2014 (Local Time) from ZUUU Reporting Station
Haze Haze  
Wind Chill: 55°   Ceiling: Unl
Heat Index: 55°   Visibility: 3mi
Dew Point: 48°   Wind: 2mph
Humidity: 77%   Direction: NA
Pressure: 30.06"   Gusts: NA
Location:  30.5°N, 104.07°E
Report Text: ZUUU 240900Z VRB01MPS 5000 BR SCT050 13/09 Q1018 NOSIG
Loading
Personal Weather Stations






























Interactive Weather Map New forecast layout! Learn more

10-Day Weather Forecast

Advertisements
Track Severe Weather on mobile